sensor_id;sensor_type;location;lat;lon;timestamp;P1;durP1;ratioP1;P2;durP2;ratioP2
7195;SDS011;3639;51.308;5.624;2023-08-06T00:00:04;4.90;;;2.57;;
7195;SDS011;3639;51.308;5.624;2023-08-06T00:02:30;2.50;;;2.20;;
7195;SDS011;3639;51.308;5.624;2023-08-06T00:04:55;4.37;;;2.53;;
7195;SDS011;3639;51.308;5.624;2023-08-06T00:07:21;2.93;;;2.10;;
7195;SDS011;3639;51.308;5.624;2023-08-06T00:09:47;4.43;;;2.37;;
7195;SDS011;3639;51.308;5.624;2023-08-06T00:12:13;3.83;;;2.70;;
7195;SDS011;3639;51.308;5.624;2023-08-06T00:14:38;4.07;;;2.10;;
7195;SDS011;3639;51.308;5.624;2023-08-06T00:17:04;3.97;;;2.17;;
7195;SDS011;3639;51.308;5.624;2023-08-06T00:19:30;4.27;;;2.40;;
7195;SDS011;3639;51.308;5.624;2023-08-06T00:21:56;3.80;;;2.13;;
7195;SDS011;3639;51.308;5.624;2023-08-06T00:24:22;3.27;;;2.10;;
7195;SDS011;3639;51.308;5.624;2023-08-06T00:26:48;3.87;;;2.30;;
7195;SDS011;3639;51.308;5.624;2023-08-06T00:29:13;3.13;;;2.67;;
7195;SDS011;3639;51.308;5.624;2023-08-06T00:31:39;3.40;;;2.40;;
7195;SDS011;3639;51.308;5.624;2023-08-06T00:34:04;3.80;;;2.10;;
7195;SDS011;3639;51.308;5.624;2023-08-06T00:36:30;3.57;;;2.10;;
7195;SDS011;3639;51.308;5.624;2023-08-06T00:38:56;5.13;;;2.67;;
7195;SDS011;3639;51.308;5.624;2023-08-06T00:41:21;2.83;;;2.40;;
7195;SDS011;3639;51.308;5.624;2023-08-06T00:43:47;3.23;;;2.07;;
7195;SDS011;3639;51.308;5.624;2023-08-06T00:46:12;2.57;;;2.23;;
7195;SDS011;3639;51.308;5.624;2023-08-06T00:48:39;3.83;;;2.17;;
7195;SDS011;3639;51.308;5.624;2023-08-06T00:51:05;4.70;;;2.57;;
7195;SDS011;3639;51.308;5.624;2023-08-06T00:53:31;4.50;;;2.43;;
7195;SDS011;3639;51.308;5.624;2023-08-06T00:55:57;4.73;;;2.77;;
7195;SDS011;3639;51.308;5.624;2023-08-06T00:58:23;5.40;;;3.43;;
7195;SDS011;3639;51.308;5.624;2023-08-06T01:00:49;2.10;;;1.80;;
7195;SDS011;3639;51.308;5.624;2023-08-06T01:03:15;4.67;;;2.37;;
7195;SDS011;3639;51.308;5.624;2023-08-06T01:05:41;3.47;;;2.03;;
7195;SDS011;3639;51.308;5.624;2023-08-06T01:13:49;4.17;;;2.10;;
7195;SDS011;3639;51.308;5.624;2023-08-06T01:16:20;2.97;;;2.20;;
7195;SDS011;3639;51.308;5.624;2023-08-06T01:18:49;5.40;;;2.40;;
7195;SDS011;3639;51.308;5.624;2023-08-06T01:21:15;5.63;;;3.00;;
7195;SDS011;3639;51.308;5.624;2023-08-06T01:23:42;6.93;;;2.80;;
7195;SDS011;3639;51.308;5.624;2023-08-06T01:28:56;4.20;;;2.30;;
7195;SDS011;3639;51.308;5.624;2023-08-06T01:31:35;5.73;;;2.23;;
7195;SDS011;3639;51.308;5.624;2023-08-06T01:34:03;3.13;;;2.30;;
7195;SDS011;3639;51.308;5.624;2023-08-06T01:36:32;3.47;;;1.97;;
7195;SDS011;3639;51.308;5.624;2023-08-06T01:38:58;3.27;;;2.20;;
7195;SDS011;3639;51.308;5.624;2023-08-06T01:41:25;3.53;;;2.10;;
7195;SDS011;3639;51.308;5.624;2023-08-06T01:43:50;3.57;;;2.27;;
7195;SDS011;3639;51.308;5.624;2023-08-06T01:46:16;4.63;;;2.40;;
7195;SDS011;3639;51.308;5.624;2023-08-06T01:48:43;2.23;;;1.97;;
7195;SDS011;3639;51.308;5.624;2023-08-06T01:51:08;6.37;;;2.60;;
7195;SDS011;3639;51.308;5.624;2023-08-06T01:53:34;4.60;;;2.80;;
7195;SDS011;3639;51.308;5.624;2023-08-06T01:56:00;4.73;;;2.50;;
7195;SDS011;3639;51.308;5.624;2023-08-06T01:58:25;3.77;;;2.50;;
7195;SDS011;3639;51.308;5.624;2023-08-06T02:00:51;4.90;;;2.80;;
7195;SDS011;3639;51.308;5.624;2023-08-06T02:03:16;3.53;;;2.40;;
7195;SDS011;3639;51.308;5.624;2023-08-06T02:05:42;4.03;;;2.30;;
7195;SDS011;3639;51.308;5.624;2023-08-06T02:08:08;5.10;;;2.50;;
7195;SDS011;3639;51.308;5.624;2023-08-06T02:10:34;5.37;;;2.80;;
7195;SDS011;3639;51.308;5.624;2023-08-06T02:13:00;3.97;;;2.57;;
7195;SDS011;3639;51.308;5.624;2023-08-06T02:15:25;4.23;;;2.57;;
7195;SDS011;3639;51.308;5.624;2023-08-06T02:17:51;4.03;;;2.50;;
7195;SDS011;3639;51.308;5.624;2023-08-06T02:20:16;3.97;;;2.63;;
7195;SDS011;3639;51.308;5.624;2023-08-06T02:22:42;5.27;;;2.43;;
7195;SDS011;3639;51.308;5.624;2023-08-06T02:25:08;5.30;;;2.40;;
7195;SDS011;3639;51.308;5.624;2023-08-06T02:27:33;2.73;;;2.20;;
7195;SDS011;3639;51.308;5.624;2023-08-06T02:29:59;3.63;;;2.60;;
7195;SDS011;3639;51.308;5.624;2023-08-06T02:32:24;4.90;;;3.17;;
7195;SDS011;3639;51.308;5.624;2023-08-06T02:34:50;3.60;;;2.37;;
7195;SDS011;3639;51.308;5.624;2023-08-06T02:37:16;7.07;;;2.30;;
7195;SDS011;3639;51.308;5.624;2023-08-06T02:39:41;3.87;;;2.20;;
7195;SDS011;3639;51.308;5.624;2023-08-06T02:42:08;3.13;;;2.40;;
7195;SDS011;3639;51.308;5.624;2023-08-06T02:44:34;4.03;;;2.60;;
7195;SDS011;3639;51.308;5.624;2023-08-06T02:47:00;6.43;;;2.67;;
7195;SDS011;3639;51.308;5.624;2023-08-06T02:49:25;3.20;;;2.50;;
7195;SDS011;3639;51.308;5.624;2023-08-06T02:51:51;7.10;;;2.70;;
7195;SDS011;3639;51.308;5.624;2023-08-06T02:54:20;3.37;;;2.40;;
7195;SDS011;3639;51.308;5.624;2023-08-06T02:56:45;4.93;;;2.63;;
7195;SDS011;3639;51.308;5.624;2023-08-06T02:59:12;4.77;;;2.73;;
7195;SDS011;3639;51.308;5.624;2023-08-06T03:01:38;3.53;;;2.50;;
7195;SDS011;3639;51.308;5.624;2023-08-06T03:04:03;3.40;;;2.70;;
7195;SDS011;3639;51.308;5.624;2023-08-06T03:06:29;5.57;;;2.63;;
7195;SDS011;3639;51.308;5.624;2023-08-06T03:08:55;4.30;;;2.60;;
7195;SDS011;3639;51.308;5.624;2023-08-06T03:11:20;5.27;;;2.80;;
7195;SDS011;3639;51.308;5.624;2023-08-06T03:13:46;4.60;;;2.77;;
7195;SDS011;3639;51.308;5.624;2023-08-06T03:16:12;4.47;;;3.63;;
7195;SDS011;3639;51.308;5.624;2023-08-06T03:18:38;5.70;;;3.60;;
7195;SDS011;3639;51.308;5.624;2023-08-06T03:21:04;3.30;;;2.53;;
7195;SDS011;3639;51.308;5.624;2023-08-06T03:23:30;4.77;;;3.13;;
7195;SDS011;3639;51.308;5.624;2023-08-06T03:25:55;8.90;;;3.13;;
7195;SDS011;3639;51.308;5.624;2023-08-06T03:28:21;7.53;;;2.80;;
7195;SDS011;3639;51.308;5.624;2023-08-06T03:30:47;5.47;;;3.30;;
7195;SDS011;3639;51.308;5.624;2023-08-06T03:33:13;7.33;;;3.30;;
7195;SDS011;3639;51.308;5.624;2023-08-06T03:35:39;3.33;;;2.87;;
7195;SDS011;3639;51.308;5.624;2023-08-06T03:38:04;5.43;;;3.17;;
7195;SDS011;3639;51.308;5.624;2023-08-06T03:40:30;4.50;;;3.07;;
7195;SDS011;3639;51.308;5.624;2023-08-06T03:42:56;4.60;;;3.50;;
7195;SDS011;3639;51.308;5.624;2023-08-06T03:45:22;6.13;;;3.30;;
7195;SDS011;3639;51.308;5.624;2023-08-06T03:47:47;4.03;;;2.97;;
7195;SDS011;3639;51.308;5.624;2023-08-06T03:50:13;3.83;;;2.97;;
7195;SDS011;3639;51.308;5.624;2023-08-06T03:52:39;5.30;;;3.00;;
7195;SDS011;3639;51.308;5.624;2023-08-06T03:55:04;4.50;;;3.30;;
7195;SDS011;3639;51.308;5.624;2023-08-06T03:57:30;5.30;;;3.60;;
7195;SDS011;3639;51.308;5.624;2023-08-06T03:59:56;4.67;;;3.47;;
7195;SDS011;3639;51.308;5.624;2023-08-06T04:02:21;4.87;;;3.20;;
7195;SDS011;3639;51.308;5.624;2023-08-06T04:04:47;5.03;;;3.23;;
7195;SDS011;3639;51.308;5.624;2023-08-06T04:07:13;8.10;;;3.00;;
7195;SDS011;3639;51.308;5.624;2023-08-06T04:10:00;6.00;;;3.13;;
7195;SDS011;3639;51.308;5.624;2023-08-06T04:12:27;7.27;;;3.20;;
7195;SDS011;3639;51.308;5.624;2023-08-06T04:14:53;6.10;;;3.87;;
7195;SDS011;3639;51.308;5.624;2023-08-06T04:17:19;7.27;;;3.70;;
7195;SDS011;3639;51.308;5.624;2023-08-06T04:19:49;6.37;;;3.70;;
7195;SDS011;3639;51.308;5.624;2023-08-06T04:22:16;5.23;;;3.33;;
7195;SDS011;3639;51.308;5.624;2023-08-06T04:24:42;7.40;;;3.73;;
7195;SDS011;3639;51.308;5.624;2023-08-06T04:27:08;4.40;;;3.60;;
7195;SDS011;3639;51.308;5.624;2023-08-06T04:29:34;5.43;;;3.80;;
7195;SDS011;3639;51.308;5.624;2023-08-06T04:32:00;5.23;;;4.23;;
7195;SDS011;3639;51.308;5.624;2023-08-06T04:34:26;8.67;;;4.30;;
7195;SDS011;3639;51.308;5.624;2023-08-06T04:36:51;6.40;;;4.20;;
7195;SDS011;3639;51.308;5.624;2023-08-06T04:39:17;6.70;;;4.67;;
7195;SDS011;3639;51.308;5.624;2023-08-06T04:41:43;7.73;;;4.40;;
7195;SDS011;3639;51.308;5.624;2023-08-06T04:44:08;6.33;;;4.70;;
7195;SDS011;3639;51.308;5.624;2023-08-06T04:46:34;8.50;;;5.03;;
7195;SDS011;3639;51.308;5.624;2023-08-06T04:48:59;6.40;;;4.90;;
7195;SDS011;3639;51.308;5.624;2023-08-06T04:51:25;7.37;;;5.07;;
7195;SDS011;3639;51.308;5.624;2023-08-06T04:53:50;6.60;;;4.33;;
7195;SDS011;3639;51.308;5.624;2023-08-06T04:56:16;7.13;;;5.03;;
7195;SDS011;3639;51.308;5.624;2023-08-06T04:58:41;5.93;;;5.10;;
7195;SDS011;3639;51.308;5.624;2023-08-06T05:01:07;6.97;;;5.30;;
7195;SDS011;3639;51.308;5.624;2023-08-06T05:03:32;7.37;;;4.83;;
7195;SDS011;3639;51.308;5.624;2023-08-06T05:05:58;4.97;;;4.20;;
7195;SDS011;3639;51.308;5.624;2023-08-06T05:08:24;6.07;;;4.50;;
7195;SDS011;3639;51.308;5.624;2023-08-06T05:10:49;5.97;;;4.50;;
7195;SDS011;3639;51.308;5.624;2023-08-06T05:13:15;5.50;;;4.50;;
7195;SDS011;3639;51.308;5.624;2023-08-06T05:15:41;6.83;;;3.93;;
7195;SDS011;3639;51.308;5.624;2023-08-06T05:18:07;5.70;;;3.90;;
7195;SDS011;3639;51.308;5.624;2023-08-06T05:20:37;6.70;;;4.73;;
7195;SDS011;3639;51.308;5.624;2023-08-06T05:23:03;5.03;;;3.30;;
7195;SDS011;3639;51.308;5.624;2023-08-06T05:25:29;5.07;;;4.10;;
7195;SDS011;3639;51.308;5.624;2023-08-06T05:27:55;5.30;;;3.70;;
7195;SDS011;3639;51.308;5.624;2023-08-06T05:30:20;6.00;;;4.13;;
7195;SDS011;3639;51.308;5.624;2023-08-06T05:32:46;4.83;;;3.67;;
7195;SDS011;3639;51.308;5.624;2023-08-06T05:35:12;4.73;;;3.97;;
7195;SDS011;3639;51.308;5.624;2023-08-06T05:37:37;4.50;;;3.63;;
7195;SDS011;3639;51.308;5.624;2023-08-06T05:40:03;3.80;;;3.40;;
7195;SDS011;3639;51.308;5.624;2023-08-06T05:42:29;4.97;;;3.90;;
7195;SDS011;3639;51.308;5.624;2023-08-06T05:44:55;5.03;;;3.37;;
7195;SDS011;3639;51.308;5.624;2023-08-06T05:47:21;5.63;;;3.60;;
7195;SDS011;3639;51.308;5.624;2023-08-06T05:49:47;4.67;;;3.70;;
7195;SDS011;3639;51.308;5.624;2023-08-06T05:52:12;5.37;;;3.90;;
7195;SDS011;3639;51.308;5.624;2023-08-06T05:54:38;5.50;;;4.17;;
7195;SDS011;3639;51.308;5.624;2023-08-06T05:57:05;6.13;;;4.03;;
7195;SDS011;3639;51.308;5.624;2023-08-06T05:59:31;4.93;;;3.77;;
7195;SDS011;3639;51.308;5.624;2023-08-06T06:01:56;5.50;;;4.37;;
7195;SDS011;3639;51.308;5.624;2023-08-06T06:04:22;6.63;;;4.53;;
7195;SDS011;3639;51.308;5.624;2023-08-06T06:06:48;4.80;;;4.03;;
7195;SDS011;3639;51.308;5.624;2023-08-06T06:09:13;4.67;;;3.90;;
7195;SDS011;3639;51.308;5.624;2023-08-06T06:11:39;5.50;;;3.97;;
7195;SDS011;3639;51.308;5.624;2023-08-06T06:14:04;5.00;;;4.03;;
7195;SDS011;3639;51.308;5.624;2023-08-06T06:16:30;6.07;;;4.37;;
7195;SDS011;3639;51.308;5.624;2023-08-06T06:18:55;6.87;;;3.97;;
7195;SDS011;3639;51.308;5.624;2023-08-06T06:21:22;5.60;;;3.70;;
7195;SDS011;3639;51.308;5.624;2023-08-06T06:23:48;9.53;;;5.20;;
7195;SDS011;3639;51.308;5.624;2023-08-06T06:26:16;5.73;;;5.00;;
7195;SDS011;3639;51.308;5.624;2023-08-06T06:28:42;5.93;;;4.60;;
7195;SDS011;3639;51.308;5.624;2023-08-06T06:31:07;4.87;;;4.27;;
7195;SDS011;3639;51.308;5.624;2023-08-06T06:33:34;3.97;;;3.57;;
7195;SDS011;3639;51.308;5.624;2023-08-06T06:36:00;7.67;;;4.07;;
7195;SDS011;3639;51.308;5.624;2023-08-06T06:38:28;4.47;;;3.53;;
7195;SDS011;3639;51.308;5.624;2023-08-06T06:40:56;9.33;;;4.00;;
7195;SDS011;3639;51.308;5.624;2023-08-06T06:43:22;4.87;;;3.87;;
7195;SDS011;3639;51.308;5.624;2023-08-06T06:45:57;4.67;;;3.70;;
7195;SDS011;3639;51.308;5.624;2023-08-06T06:48:25;6.27;;;3.87;;
7195;SDS011;3639;51.308;5.624;2023-08-06T06:50:52;5.10;;;3.83;;
7195;SDS011;3639;51.308;5.624;2023-08-06T06:53:17;4.23;;;3.73;;
7195;SDS011;3639;51.308;5.624;2023-08-06T06:55:43;4.70;;;3.80;;
7195;SDS011;3639;51.308;5.624;2023-08-06T06:58:09;4.97;;;3.13;;
7195;SDS011;3639;51.308;5.624;2023-08-06T07:00:37;5.40;;;4.33;;
7195;SDS011;3639;51.308;5.624;2023-08-06T07:03:03;7.00;;;4.43;;
7195;SDS011;3639;51.308;5.624;2023-08-06T07:05:29;4.60;;;3.50;;
7195;SDS011;3639;51.308;5.624;2023-08-06T07:07:54;5.67;;;4.40;;
7195;SDS011;3639;51.308;5.624;2023-08-06T07:10:20;6.13;;;3.90;;
7195;SDS011;3639;51.308;5.624;2023-08-06T07:12:45;6.60;;;4.10;;
7195;SDS011;3639;51.308;5.624;2023-08-06T07:15:11;6.67;;;3.70;;
7195;SDS011;3639;51.308;5.624;2023-08-06T07:17:37;2.80;;;2.27;;
7195;SDS011;3639;51.308;5.624;2023-08-06T07:20:03;1.80;;;1.63;;
7195;SDS011;3639;51.308;5.624;2023-08-06T07:22:29;1.80;;;1.50;;
7195;SDS011;3639;51.308;5.624;2023-08-06T07:24:54;1.60;;;1.20;;
7195;SDS011;3639;51.308;5.624;2023-08-06T07:27:20;1.37;;;1.20;;
7195;SDS011;3639;51.308;5.624;2023-08-06T07:29:46;1.63;;;1.30;;
7195;SDS011;3639;51.308;5.624;2023-08-06T07:32:13;3.10;;;1.63;;
7195;SDS011;3639;51.308;5.624;2023-08-06T07:34:38;3.93;;;1.93;;
7195;SDS011;3639;51.308;5.624;2023-08-06T07:37:04;2.30;;;1.77;;
7195;SDS011;3639;51.308;5.624;2023-08-06T07:39:30;2.70;;;2.20;;
7195;SDS011;3639;51.308;5.624;2023-08-06T07:41:56;3.47;;;2.20;;
7195;SDS011;3639;51.308;5.624;2023-08-06T07:44:22;3.60;;;2.20;;
7195;SDS011;3639;51.308;5.624;2023-08-06T07:46:48;3.37;;;2.67;;
7195;SDS011;3639;51.308;5.624;2023-08-06T07:49:14;4.83;;;2.20;;
7195;SDS011;3639;51.308;5.624;2023-08-06T07:51:40;3.10;;;2.50;;
7195;SDS011;3639;51.308;5.624;2023-08-06T07:54:05;2.70;;;2.23;;
7195;SDS011;3639;51.308;5.624;2023-08-06T07:56:31;2.77;;;2.27;;
7195;SDS011;3639;51.308;5.624;2023-08-06T07:58:57;4.13;;;2.60;;
7195;SDS011;3639;51.308;5.624;2023-08-06T08:01:22;3.17;;;2.47;;
7195;SDS011;3639;51.308;5.624;2023-08-06T08:03:48;3.30;;;2.53;;
7195;SDS011;3639;51.308;5.624;2023-08-06T08:06:14;3.17;;;2.47;;
7195;SDS011;3639;51.308;5.624;2023-08-06T08:08:39;3.93;;;3.13;;
7195;SDS011;3639;51.308;5.624;2023-08-06T08:11:05;4.63;;;2.70;;
7195;SDS011;3639;51.308;5.624;2023-08-06T08:13:31;4.43;;;3.40;;
7195;SDS011;3639;51.308;5.624;2023-08-06T08:16:00;5.70;;;3.23;;
7195;SDS011;3639;51.308;5.624;2023-08-06T08:18:26;4.23;;;3.10;;
7195;SDS011;3639;51.308;5.624;2023-08-06T08:20:51;5.57;;;3.30;;
7195;SDS011;3639;51.308;5.624;2023-08-06T08:23:17;4.40;;;3.30;;
7195;SDS011;3639;51.308;5.624;2023-08-06T08:25:43;4.80;;;3.67;;
7195;SDS011;3639;51.308;5.624;2023-08-06T08:28:09;4.83;;;3.00;;
7195;SDS011;3639;51.308;5.624;2023-08-06T08:30:34;6.13;;;3.57;;
7195;SDS011;3639;51.308;5.624;2023-08-06T08:33:00;6.07;;;3.60;;
7195;SDS011;3639;51.308;5.624;2023-08-06T08:35:25;3.67;;;3.10;;
7195;SDS011;3639;51.308;5.624;2023-08-06T08:37:51;5.07;;;3.77;;
7195;SDS011;3639;51.308;5.624;2023-08-06T08:40:17;5.77;;;3.30;;
7195;SDS011;3639;51.308;5.624;2023-08-06T08:42:43;4.83;;;3.40;;
7195;SDS011;3639;51.308;5.624;2023-08-06T08:45:13;4.73;;;3.30;;
7195;SDS011;3639;51.308;5.624;2023-08-06T08:47:42;7.13;;;2.77;;
7195;SDS011;3639;51.308;5.624;2023-08-06T08:50:08;5.70;;;2.90;;
7195;SDS011;3639;51.308;5.624;2023-08-06T08:52:39;5.30;;;2.97;;
7195;SDS011;3639;51.308;5.624;2023-08-06T08:55:07;8.30;;;3.47;;
7195;SDS011;3639;51.308;5.624;2023-08-06T08:57:33;6.93;;;3.43;;
7195;SDS011;3639;51.308;5.624;2023-08-06T08:59:59;8.40;;;3.33;;
7195;SDS011;3639;51.308;5.624;2023-08-06T09:02:25;5.80;;;3.37;;
7195;SDS011;3639;51.308;5.624;2023-08-06T09:04:54;5.80;;;3.17;;
7195;SDS011;3639;51.308;5.624;2023-08-06T09:07:24;8.27;;;2.87;;
7195;SDS011;3639;51.308;5.624;2023-08-06T09:09:51;9.83;;;3.50;;
7195;SDS011;3639;51.308;5.624;2023-08-06T09:12:18;6.50;;;3.60;;
7195;SDS011;3639;51.308;5.624;2023-08-06T09:14:44;7.80;;;3.53;;
7195;SDS011;3639;51.308;5.624;2023-08-06T09:17:10;6.17;;;3.07;;
7195;SDS011;3639;51.308;5.624;2023-08-06T09:19:36;6.50;;;3.23;;
7195;SDS011;3639;51.308;5.624;2023-08-06T09:22:02;7.07;;;3.60;;
7195;SDS011;3639;51.308;5.624;2023-08-06T09:24:28;5.83;;;3.07;;
7195;SDS011;3639;51.308;5.624;2023-08-06T09:26:54;5.37;;;3.07;;
7195;SDS011;3639;51.308;5.624;2023-08-06T09:29:19;3.90;;;2.63;;
7195;SDS011;3639;51.308;5.624;2023-08-06T09:31:49;6.97;;;3.10;;
7195;SDS011;3639;51.308;5.624;2023-08-06T09:34:19;7.27;;;3.50;;
7195;SDS011;3639;51.308;5.624;2023-08-06T09:36:49;7.13;;;3.77;;
7195;SDS011;3639;51.308;5.624;2023-08-06T09:39:19;5.27;;;3.10;;
7195;SDS011;3639;51.308;5.624;2023-08-06T09:41:46;6.80;;;3.10;;
7195;SDS011;3639;51.308;5.624;2023-08-06T09:44:15;8.03;;;2.90;;
7195;SDS011;3639;51.308;5.624;2023-08-06T09:46:47;4.70;;;2.97;;
7195;SDS011;3639;51.308;5.624;2023-08-06T09:51:58;4.00;;;2.73;;
7195;SDS011;3639;51.308;5.624;2023-08-06T09:54:28;7.47;;;3.20;;
7195;SDS011;3639;51.308;5.624;2023-08-06T09:56:55;9.13;;;3.43;;
7195;SDS011;3639;51.308;5.624;2023-08-06T09:59:22;6.77;;;2.70;;
7195;SDS011;3639;51.308;5.624;2023-08-06T10:01:48;6.07;;;2.60;;
7195;SDS011;3639;51.308;5.624;2023-08-06T10:04:14;7.20;;;2.60;;
7195;SDS011;3639;51.308;5.624;2023-08-06T10:06:43;9.90;;;2.67;;
7195;SDS011;3639;51.308;5.624;2023-08-06T10:09:12;4.87;;;2.57;;
7195;SDS011;3639;51.308;5.624;2023-08-06T10:11:38;5.73;;;2.40;;
7195;SDS011;3639;51.308;5.624;2023-08-06T10:14:15;8.03;;;2.33;;
7195;SDS011;3639;51.308;5.624;2023-08-06T10:16:45;6.00;;;2.20;;
7195;SDS011;3639;51.308;5.624;2023-08-06T10:19:12;7.87;;;2.97;;
7195;SDS011;3639;51.308;5.624;2023-08-06T10:21:39;6.40;;;2.33;;
7195;SDS011;3639;51.308;5.624;2023-08-06T10:24:07;5.17;;;2.10;;
7195;SDS011;3639;51.308;5.624;2023-08-06T10:26:35;4.97;;;2.13;;
7195;SDS011;3639;51.308;5.624;2023-08-06T10:29:01;11.10;;;3.10;;
7195;SDS011;3639;51.308;5.624;2023-08-06T10:32:16;5.53;;;2.23;;
7195;SDS011;3639;51.308;5.624;2023-08-06T10:34:56;4.70;;;2.37;;
7195;SDS011;3639;51.308;5.624;2023-08-06T10:37:23;10.10;;;2.83;;
7195;SDS011;3639;51.308;5.624;2023-08-06T10:39:59;12.87;;;2.70;;
7195;SDS011;3639;51.308;5.624;2023-08-06T10:42:28;6.03;;;2.83;;
7195;SDS011;3639;51.308;5.624;2023-08-06T10:47:42;6.90;;;2.67;;
7195;SDS011;3639;51.308;5.624;2023-08-06T10:50:10;5.93;;;2.00;;
7195;SDS011;3639;51.308;5.624;2023-08-06T10:52:39;6.53;;;2.07;;
7195;SDS011;3639;51.308;5.624;2023-08-06T10:55:05;3.53;;;1.93;;
7195;SDS011;3639;51.308;5.624;2023-08-06T10:57:31;3.37;;;2.37;;
7195;SDS011;3639;51.308;5.624;2023-08-06T10:59:56;4.03;;;2.30;;
7195;SDS011;3639;51.308;5.624;2023-08-06T11:02:22;7.20;;;2.37;;
7195;SDS011;3639;51.308;5.624;2023-08-06T11:04:48;6.43;;;2.67;;
7195;SDS011;3639;51.308;5.624;2023-08-06T11:07:14;6.07;;;2.57;;
7195;SDS011;3639;51.308;5.624;2023-08-06T11:09:39;6.40;;;2.80;;
7195;SDS011;3639;51.308;5.624;2023-08-06T11:12:11;9.53;;;3.10;;
7195;SDS011;3639;51.308;5.624;2023-08-06T11:14:37;6.83;;;3.10;;
7195;SDS011;3639;51.308;5.624;2023-08-06T11:17:04;14.37;;;4.27;;
7195;SDS011;3639;51.308;5.624;2023-08-06T11:19:30;9.17;;;3.20;;
7195;SDS011;3639;51.308;5.624;2023-08-06T11:21:56;8.30;;;3.70;;
7195;SDS011;3639;51.308;5.624;2023-08-06T11:24:23;8.43;;;3.30;;
7195;SDS011;3639;51.308;5.624;2023-08-06T11:26:49;8.83;;;3.40;;
7195;SDS011;3639;51.308;5.624;2023-08-06T11:29:15;10.30;;;3.70;;
7195;SDS011;3639;51.308;5.624;2023-08-06T11:31:41;7.67;;;3.80;;
7195;SDS011;3639;51.308;5.624;2023-08-06T11:34:06;7.33;;;3.73;;
7195;SDS011;3639;51.308;5.624;2023-08-06T11:36:36;10.30;;;4.33;;
7195;SDS011;3639;51.308;5.624;2023-08-06T11:39:05;10.40;;;4.30;;
7195;SDS011;3639;51.308;5.624;2023-08-06T11:41:31;9.30;;;3.80;;
7195;SDS011;3639;51.308;5.624;2023-08-06T11:44:01;8.83;;;4.13;;
7195;SDS011;3639;51.308;5.624;2023-08-06T11:46:28;7.03;;;4.20;;
7195;SDS011;3639;51.308;5.624;2023-08-06T11:48:54;10.30;;;3.80;;
7195;SDS011;3639;51.308;5.624;2023-08-06T11:51:27;7.20;;;3.87;;
7195;SDS011;3639;51.308;5.624;2023-08-06T11:53:56;13.03;;;3.63;;
7195;SDS011;3639;51.308;5.624;2023-08-06T11:56:22;7.33;;;3.73;;
7195;SDS011;3639;51.308;5.624;2023-08-06T11:58:48;8.00;;;3.43;;
7195;SDS011;3639;51.308;5.624;2023-08-06T12:01:14;7.97;;;3.20;;
7195;SDS011;3639;51.308;5.624;2023-08-06T12:03:40;5.93;;;3.23;;
7195;SDS011;3639;51.308;5.624;2023-08-06T12:06:06;5.53;;;3.27;;
7195;SDS011;3639;51.308;5.624;2023-08-06T12:08:34;8.40;;;2.83;;
7195;SDS011;3639;51.308;5.624;2023-08-06T12:11:00;10.40;;;3.07;;
7195;SDS011;3639;51.308;5.624;2023-08-06T12:13:25;8.03;;;3.10;;
7195;SDS011;3639;51.308;5.624;2023-08-06T12:15:51;5.30;;;2.40;;
7195;SDS011;3639;51.308;5.624;2023-08-06T12:18:19;10.27;;;2.30;;
7195;SDS011;3639;51.308;5.624;2023-08-06T12:20:44;4.93;;;1.93;;
7195;SDS011;3639;51.308;5.624;2023-08-06T12:23:10;4.43;;;1.93;;
7195;SDS011;3639;51.308;5.624;2023-08-06T12:25:40;6.57;;;2.00;;
7195;SDS011;3639;51.308;5.624;2023-08-06T12:28:06;4.40;;;1.83;;
7195;SDS011;3639;51.308;5.624;2023-08-06T12:30:32;5.80;;;1.70;;
7195;SDS011;3639;51.308;5.624;2023-08-06T12:32:58;3.30;;;1.60;;
7195;SDS011;3639;51.308;5.624;2023-08-06T12:35:23;5.47;;;1.80;;
7195;SDS011;3639;51.308;5.624;2023-08-06T12:37:50;2.97;;;1.93;;
7195;SDS011;3639;51.308;5.624;2023-08-06T12:40:19;6.57;;;1.70;;
7195;SDS011;3639;51.308;5.624;2023-08-06T12:42:45;4.60;;;1.90;;
7195;SDS011;3639;51.308;5.624;2023-08-06T12:45:11;5.53;;;1.60;;
7195;SDS011;3639;51.308;5.624;2023-08-06T12:47:36;3.67;;;1.70;;
7195;SDS011;3639;51.308;5.624;2023-08-06T12:50:02;7.53;;;2.07;;
7195;SDS011;3639;51.308;5.624;2023-08-06T12:52:28;8.27;;;2.60;;
7195;SDS011;3639;51.308;5.624;2023-08-06T12:54:54;4.40;;;1.43;;
7195;SDS011;3639;51.308;5.624;2023-08-06T12:57:20;3.93;;;1.40;;
7195;SDS011;3639;51.308;5.624;2023-08-06T12:59:45;3.83;;;1.23;;
7195;SDS011;3639;51.308;5.624;2023-08-06T13:02:11;4.47;;;1.50;;
7195;SDS011;3639;51.308;5.624;2023-08-06T13:04:36;5.70;;;1.23;;
7195;SDS011;3639;51.308;5.624;2023-08-06T13:07:02;3.37;;;1.97;;
7195;SDS011;3639;51.308;5.624;2023-08-06T13:09:28;4.10;;;1.10;;
7195;SDS011;3639;51.308;5.624;2023-08-06T13:11:54;3.40;;;1.67;;
7195;SDS011;3639;51.308;5.624;2023-08-06T13:14:20;4.40;;;1.10;;
7195;SDS011;3639;51.308;5.624;2023-08-06T13:16:46;2.73;;;0.93;;
7195;SDS011;3639;51.308;5.624;2023-08-06T13:19:12;2.57;;;1.40;;
7195;SDS011;3639;51.308;5.624;2023-08-06T13:24:06;6.07;;;1.60;;
7195;SDS011;3639;51.308;5.624;2023-08-06T13:26:35;8.73;;;1.93;;
7195;SDS011;3639;51.308;5.624;2023-08-06T13:29:01;6.57;;;1.67;;
7195;SDS011;3639;51.308;5.624;2023-08-06T13:31:27;4.07;;;1.30;;
7195;SDS011;3639;51.308;5.624;2023-08-06T13:33:54;4.20;;;1.50;;
7195;SDS011;3639;51.308;5.624;2023-08-06T13:36:20;6.03;;;1.30;;
7195;SDS011;3639;51.308;5.624;2023-08-06T13:38:47;6.97;;;1.70;;
7195;SDS011;3639;51.308;5.624;2023-08-06T13:41:12;4.83;;;1.57;;
7195;SDS011;3639;51.308;5.624;2023-08-06T13:43:38;5.97;;;2.27;;
7195;SDS011;3639;51.308;5.624;2023-08-06T13:46:04;5.10;;;1.40;;
7195;SDS011;3639;51.308;5.624;2023-08-06T13:48:30;4.17;;;1.30;;
7195;SDS011;3639;51.308;5.624;2023-08-06T13:50:55;5.87;;;1.90;;
7195;SDS011;3639;51.308;5.624;2023-08-06T13:53:21;3.10;;;1.47;;
7195;SDS011;3639;51.308;5.624;2023-08-06T13:55:47;3.73;;;1.20;;
7195;SDS011;3639;51.308;5.624;2023-08-06T13:58:12;6.60;;;1.50;;
7195;SDS011;3639;51.308;5.624;2023-08-06T14:00:38;5.53;;;1.93;;
7195;SDS011;3639;51.308;5.624;2023-08-06T14:03:03;5.67;;;1.50;;
7195;SDS011;3639;51.308;5.624;2023-08-06T14:05:29;2.83;;;1.27;;
7195;SDS011;3639;51.308;5.624;2023-08-06T14:07:55;4.03;;;1.00;;
7195;SDS011;3639;51.308;5.624;2023-08-06T14:10:20;6.33;;;1.13;;
7195;SDS011;3639;51.308;5.624;2023-08-06T14:12:46;5.97;;;1.40;;
7195;SDS011;3639;51.308;5.624;2023-08-06T14:15:12;3.63;;;1.43;;
7195;SDS011;3639;51.308;5.624;2023-08-06T14:17:38;4.47;;;1.43;;
7195;SDS011;3639;51.308;5.624;2023-08-06T14:20:05;3.17;;;1.60;;
7195;SDS011;3639;51.308;5.624;2023-08-06T14:22:33;4.90;;;1.30;;
7195;SDS011;3639;51.308;5.624;2023-08-06T14:24:59;4.77;;;1.47;;
7195;SDS011;3639;51.308;5.624;2023-08-06T14:27:24;4.30;;;1.73;;
7195;SDS011;3639;51.308;5.624;2023-08-06T14:29:50;3.70;;;1.30;;
7195;SDS011;3639;51.308;5.624;2023-08-06T14:32:16;5.23;;;1.53;;
7195;SDS011;3639;51.308;5.624;2023-08-06T14:34:43;6.00;;;1.77;;
7195;SDS011;3639;51.308;5.624;2023-08-06T14:37:09;5.67;;;1.50;;
7195;SDS011;3639;51.308;5.624;2023-08-06T14:39:35;4.60;;;1.67;;
7195;SDS011;3639;51.308;5.624;2023-08-06T14:42:00;4.80;;;1.67;;
7195;SDS011;3639;51.308;5.624;2023-08-06T14:44:27;4.53;;;1.77;;
7195;SDS011;3639;51.308;5.624;2023-08-06T14:46:52;4.87;;;1.93;;
7195;SDS011;3639;51.308;5.624;2023-08-06T14:49:18;3.67;;;1.70;;
7195;SDS011;3639;51.308;5.624;2023-08-06T14:51:43;9.20;;;2.33;;
7195;SDS011;3639;51.308;5.624;2023-08-06T14:54:09;7.67;;;1.80;;
7195;SDS011;3639;51.308;5.624;2023-08-06T14:56:35;6.97;;;1.60;;
7195;SDS011;3639;51.308;5.624;2023-08-06T14:59:00;2.37;;;1.30;;
7195;SDS011;3639;51.308;5.624;2023-08-06T15:01:26;4.10;;;1.60;;
7195;SDS011;3639;51.308;5.624;2023-08-06T15:03:52;3.20;;;1.60;;
7195;SDS011;3639;51.308;5.624;2023-08-06T15:06:17;3.93;;;2.37;;
7195;SDS011;3639;51.308;5.624;2023-08-06T15:08:43;4.40;;;1.90;;
7195;SDS011;3639;51.308;5.624;2023-08-06T15:11:10;5.03;;;1.80;;
7195;SDS011;3639;51.308;5.624;2023-08-06T15:13:36;6.10;;;2.17;;
7195;SDS011;3639;51.308;5.624;2023-08-06T15:16:01;5.30;;;1.83;;
7195;SDS011;3639;51.308;5.624;2023-08-06T15:18:27;7.53;;;2.20;;
7195;SDS011;3639;51.308;5.624;2023-08-06T15:20:55;3.80;;;1.50;;
7195;SDS011;3639;51.308;5.624;2023-08-06T15:23:22;10.70;;;2.03;;
7195;SDS011;3639;51.308;5.624;2023-08-06T15:25:48;3.87;;;1.70;;